Time,TemperatureF,DewpointF,PressureIn,WindDirection,WindDirectionDegrees,WindSpeedMPH,WindSpeedGustMPH,Humidity,HourlyPrecipIn,Conditions,Clouds,dailyrainin,SoftwareType,DateUTC
2013-06-20 00:07:00,64.7,59.4,29.80,SSE,165,0.0,0.0,83,0.00,,,0.00,Wunderground v.1.15,2013-06-20 07:07:00,
2013-06-20 00:12:00,64.6,59.3,29.80,SSE,165,0.0,0.0,83,0.00,,,0.00,Wunderground v.1.15,2013-06-20 07:12:00,
2013-06-20 00:17:00,64.4,59.5,29.80,SSE,165,0.0,0.0,84,0.00,,,0.00,Wunderground v.1.15,2013-06-20 07:17:00,
2013-06-20 00:22:00,64.3,59.0,29.80,SSE,164,0.0,0.0,83,0.00,,,0.00,Wunderground v.1.15,2013-06-20 07:22:00,
2013-06-20 00:27:00,64.0,58.1,29.80,SSE,165,0.0,1.0,81,0.00,,,0.00,Wunderground v.1.15,2013-06-20 07:27:00,
2013-06-20 00:37:00,63.8,57.5,29.80,SSE,165,0.0,0.0,80,0.00,,,0.00,Wunderground v.1.15,2013-06-20 07:37:00,
2013-06-20 00:42:00,63.6,57.3,29.79,SSE,165,0.0,0.0,80,0.00,,,0.00,Wunderground v.1.15,2013-06-20 07:42:00,
2013-06-20 00:52:00,63.4,57.1,29.79,SSE,164,0.0,0.0,80,0.00,,,0.00,Wunderground v.1.15,2013-06-20 07:52:00,
2013-06-20 01:02:00,63.1,57.2,29.79,SSE,165,0.0,1.0,81,0.00,,,0.00,Wunderground v.1.15,2013-06-20 08:02:00,
2013-06-20 01:12:00,62.8,56.9,29.80,SSE,165,0.0,0.0,81,0.00,,,0.00,Wunderground v.1.15,2013-06-20 08:12:00,
2013-06-20 01:22:00,62.7,56.8,29.79,SSE,164,0.0,0.0,81,0.00,,,0.00,Wunderground v.1.15,2013-06-20 08:22:00,
2013-06-20 01:27:00,62.6,56.7,29.79,SSE,165,0.0,0.0,81,0.00,,,0.00,Wunderground v.1.15,2013-06-20 08:27:00,
2013-06-20 01:37:00,62.4,56.5,29.79,SSE,164,0.0,1.0,81,0.00,,,0.00,Wunderground v.1.15,2013-06-20 08:37:00,
2013-06-20 01:42:00,62.3,56.4,29.79,SSE,165,0.0,0.0,81,0.00,,,0.00,Wunderground v.1.15,2013-06-20 08:42:00,
2013-06-20 01:47:00,62.1,56.2,29.79,SSE,165,0.0,0.0,81,0.00,,,0.00,Wunderground v.1.15,2013-06-20 08:47:00,
2013-06-20 01:52:00,62.0,56.4,29.79,SSE,164,0.0,0.0,82,0.00,,,0.00,Wunderground v.1.15,2013-06-20 08:52:00,
2013-06-20 01:57:00,61.9,56.3,29.79,SSE,165,0.0,0.0,82,0.00,,,0.00,Wunderground v.1.15,2013-06-20 08:57:00,
2013-06-20 02:07:00,61.6,56.0,29.79,SSE,165,0.0,0.0,82,0.00,,,0.00,Wunderground v.1.15,2013-06-20 09:07:00,
2013-06-20 02:12:00,61.5,56.0,29.79,SSE,165,0.0,0.0,82,0.00,,,0.00,Wunderground v.1.15,2013-06-20 09:12:00,
2013-06-20 02:22:00,61.3,56.1,29.79,SSE,165,0.0,0.0,83,0.00,,,0.00,Wunderground v.1.15,2013-06-20 09:22:00,
2013-06-20 02:27:00,61.3,56.1,29.79,SSE,165,0.0,0.0,83,0.00,,,0.00,Wunderground v.1.15,2013-06-20 09:27:00,
2013-06-20 02:37:00,61.0,56.1,29.78,SSE,164,0.0,0.0,84,0.00,,,0.00,Wunderground v.1.15,2013-06-20 09:37:00,
2013-06-20 02:42:00,60.9,56.4,29.78,SSE,165,0.0,0.0,85,0.00,,,0.00,Wunderground v.1.15,2013-06-20 09:42:00,
2013-06-20 02:52:00,60.7,56.2,29.78,SSE,165,0.0,0.0,85,0.00,,,0.00,Wunderground v.1.15,2013-06-20 09:52:00,
2013-06-20 02:57:00,60.7,56.5,29.78,SSE,165,0.0,0.0,86,0.00,,,0.00,Wunderground v.1.15,2013-06-20 09:57:00,
2013-06-20 03:07:00,60.4,56.2,29.78,SSE,165,0.0,0.0,86,0.00,,,0.00,Wunderground v.1.15,2013-06-20 10:07:00,
2013-06-20 03:12:00,60.2,56.3,29.78,SSE,165,0.0,0.0,87,0.00,,,0.00,Wunderground v.1.15,2013-06-20 10:12:00,
2013-06-20 03:22:00,60.1,56.2,29.78,SSE,165,0.0,0.0,87,0.00,,,0.00,Wunderground v.1.15,2013-06-20 10:22:00,
2013-06-20 03:32:00,60.0,56.1,29.78,SSE,165,0.0,0.0,87,0.00,,,0.00,Wunderground v.1.15,2013-06-20 10:32:00,
2013-06-20 03:42:00,60.0,56.1,29.78,SSE,165,0.0,0.0,87,0.00,,,0.00,Wunderground v.1.15,2013-06-20 10:42:00,
2013-06-20 03:52:00,59.9,56.0,29.77,SSE,165,0.0,0.0,87,0.00,,,0.00,Wunderground v.1.15,2013-06-20 10:52:00,
2013-06-20 03:57:00,59.8,56.2,29.77,SSE,165,0.0,0.0,88,0.00,,,0.00,Wunderground v.1.15,2013-06-20 10:57:00,
2013-06-20 04:07:00,59.7,56.1,29.77,SSE,165,0.0,0.0,88,0.00,,,0.00,Wunderground v.1.15,2013-06-20 11:07:00,
2013-06-20 04:12:00,59.6,56.0,29.77,SSE,165,0.0,0.0,88,0.00,,,0.00,Wunderground v.1.15,2013-06-20 11:12:00,
2013-06-20 04:22:00,59.5,56.3,29.77,SSE,165,0.0,0.0,89,0.00,,,0.00,Wunderground v.1.15,2013-06-20 11:22:00,
2013-06-20 04:27:00,59.5,56.3,29.77,SSE,165,0.0,0.0,89,0.00,,,0.00,Wunderground v.1.15,2013-06-20 11:27:00,
2013-06-20 04:32:00,59.3,56.1,29.77,SSE,165,0.0,0.0,89,0.00,,,0.00,Wunderground v.1.15,2013-06-20 11:32:00,
2013-06-20 04:37:00,59.2,56.0,29.77,SSE,165,0.0,0.0,89,0.00,,,0.00,Wunderground v.1.15,2013-06-20 11:37:00,
2013-06-20 04:42:00,59.1,56.2,29.77,SSE,165,0.0,0.0,90,0.00,,,0.00,Wunderground v.1.15,2013-06-20 11:42:00,
2013-06-20 04:52:00,58.9,56.0,29.78,SSE,165,0.0,0.0,90,0.00,,,0.00,Wunderground v.1.15,2013-06-20 11:52:00,
2013-06-20 04:57:00,58.8,55.9,29.78,SSE,165,0.0,0.0,90,0.00,,,0.00,Wunderground v.1.15,2013-06-20 11:57:00,
2013-06-20 05:07:00,58.6,56.0,29.78,SSE,165,0.0,0.0,91,0.00,,,0.00,Wunderground v.1.15,2013-06-20 12:07:00,
2013-06-20 05:17:00,58.5,55.9,29.78,SSE,165,0.0,0.0,91,0.00,,,0.00,Wunderground v.1.15,2013-06-20 12:17:00,
2013-06-20 05:22:00,58.4,55.8,29.78,SSE,165,0.0,0.0,91,0.00,,,0.00,Wunderground v.1.15,2013-06-20 12:22:00,
2013-06-20 05:32:00,58.3,55.7,29.79,SSE,165,0.0,0.0,91,0.00,,,0.00,Wunderground v.1.15,2013-06-20 12:32:00,
2013-06-20 05:37:00,58.3,55.7,29.79,SSE,165,0.0,0.0,91,0.00,,,0.00,Wunderground v.1.15,2013-06-20 12:37:00,
2013-06-20 05:42:00,58.2,55.9,29.79,SSE,165,0.0,0.0,92,0.00,,,0.00,Wunderground v.1.15,2013-06-20 12:42:00,
2013-06-20 05:52:00,58.2,55.9,29.79,SSE,165,0.0,0.0,92,0.00,,,0.00,Wunderground v.1.15,2013-06-20 12:52:00,
2013-06-20 05:57:00,58.3,56.0,29.79,SSE,165,0.0,0.0,92,0.00,,,0.00,Wunderground v.1.15,2013-06-20 12:57:00,
2013-06-20 06:02:00,58.3,56.0,29.79,SSE,165,0.0,0.0,92,0.00,,,0.00,Wunderground v.1.15,2013-06-20 13:02:00,
2013-06-20 06:07:00,58.4,56.1,29.80,SSE,165,0.0,0.0,92,0.00,,,0.00,Wunderground v.1.15,2013-06-20 13:07:00,
2013-06-20 06:17:00,58.6,56.3,29.80,SSE,165,0.0,0.0,92,0.00,,,0.00,Wunderground v.1.15,2013-06-20 13:17:00,
2013-06-20 06:27:00,58.8,56.8,29.80,SSE,165,0.0,0.0,93,0.00,,,0.00,Wunderground v.1.15,2013-06-20 13:27:00,
2013-06-20 06:37:00,59.2,57.2,29.80,SSE,165,0.0,0.0,93,0.00,,,0.00,Wunderground v.1.15,2013-06-20 13:37:00,
2013-06-20 06:47:00,59.6,57.3,29.81,SSE,165,0.0,0.0,92,0.00,,,0.00,Wunderground v.1.15,2013-06-20 13:47:00,
2013-06-20 06:52:00,60.0,58.0,29.81,SSE,165,0.0,0.0,93,0.00,,,0.00,Wunderground v.1.15,2013-06-20 13:52:00,
2013-06-20 06:57:00,60.5,58.5,29.81,SSE,165,0.0,0.0,93,0.00,,,0.00,Wunderground v.1.15,2013-06-20 13:57:00,
2013-06-20 07:07:00,61.5,59.2,29.81,SSE,165,0.0,0.0,92,0.00,,,0.00,Wunderground v.1.15,2013-06-20 14:07:00,
2013-06-20 07:17:00,62.5,60.1,29.82,ENE,62,1.0,2.0,92,0.00,,,0.00,Wunderground v.1.15,2013-06-20 14:17:00,
2013-06-20 07:27:00,63.5,60.5,29.82,ENE,58,1.0,1.0,90,0.00,,,0.00,Wunderground v.1.15,2013-06-20 14:27:00,
2013-06-20 07:32:00,64.0,60.7,29.82,SE,140,1.0,2.0,89,0.00,,,0.00,Wunderground v.1.15,2013-06-20 14:32:00,
2013-06-20 07:42:00,64.7,60.7,29.83,ESE,113,1.0,1.0,87,0.00,,,0.00,Wunderground v.1.15,2013-06-20 14:42:00,
2013-06-20 07:52:00,65.5,61.2,29.83,ESE,113,1.0,2.0,86,0.00,,,0.00,Wunderground v.1.15,2013-06-20 14:52:00,
2013-06-20 07:57:00,65.9,60.9,29.83,ESE,113,1.0,2.0,84,0.00,,,0.00,Wunderground v.1.15,2013-06-20 14:57:00,
2013-06-20 08:07:00,67.0,61.3,29.83,ESE,113,1.0,1.0,82,0.00,,,0.00,Wunderground v.1.15,2013-06-20 15:07:00,
2013-06-20 08:17:00,67.3,61.3,29.83,SSW,192,1.0,2.0,81,0.00,,,0.00,Wunderground v.1.15,2013-06-20 15:17:00,
2013-06-20 08:27:00,67.4,61.0,29.84,SSW,193,1.0,1.0,80,0.00,,,0.00,Wunderground v.1.15,2013-06-20 15:27:00,
2013-06-20 08:37:00,68.0,61.2,29.84,SSW,202,2.0,2.0,79,0.00,,,0.00,Wunderground v.1.15,2013-06-20 15:37:00,
2013-06-20 08:47:00,69.0,61.5,29.84,SW,221,1.0,1.0,77,0.00,,,0.00,Wunderground v.1.15,2013-06-20 15:47:00,
2013-06-20 08:52:00,68.8,60.9,29.84,SSW,202,2.0,2.0,76,0.00,,,0.00,Wunderground v.1.15,2013-06-20 15:52:00,
2013-06-20 08:57:00,69.0,61.1,29.84,SSE,165,2.0,2.0,76,0.00,,,0.00,Wunderground v.1.15,2013-06-20 15:57:00,
2013-06-20 09:07:00,70.0,61.3,29.84,SE,144,2.0,2.0,74,0.00,,,0.00,Wunderground v.1.15,2013-06-20 16:07:00,
2013-06-20 09:17:00,70.0,60.9,29.84,SSE,147,2.0,3.0,73,0.00,,,0.00,Wunderground v.1.15,2013-06-20 16:17:00,
2013-06-20 09:22:00,70.2,60.7,29.84,SW,231,2.0,5.0,72,0.00,,,0.00,Wunderground v.1.15,2013-06-20 16:22:00,
2013-06-20 09:27:00,70.3,60.8,29.84,SW,222,2.0,5.0,72,0.00,,,0.00,Wunderground v.1.15,2013-06-20 16:27:00,
2013-06-20 09:37:00,70.5,60.6,29.84,SSE,161,2.0,3.0,71,0.00,,,0.00,Wunderground v.1.15,2013-06-20 16:37:00,
2013-06-20 09:42:00,70.7,60.8,29.84,SW,235,2.0,2.0,71,0.00,,,0.00,Wunderground v.1.15,2013-06-20 16:42:00,
2013-06-20 09:47:00,70.8,60.5,29.84,SW,236,3.0,6.0,70,0.00,,,0.00,Wunderground v.1.15,2013-06-20 16:47:00,
2013-06-20 09:52:00,70.9,60.2,29.84,South,185,4.0,4.0,69,0.00,,,0.00,Wunderground v.1.15,2013-06-20 16:52:00,
2013-06-20 10:02:00,71.8,60.2,29.84,SSW,209,2.0,2.0,67,0.00,,,0.00,Wunderground v.1.15,2013-06-20 17:02:00,
2013-06-20 10:07:00,71.7,60.2,29.84,South,189,3.0,3.0,67,0.00,,,0.00,Wunderground v.1.15,2013-06-20 17:07:00,
2013-06-20 10:12:00,71.8,59.8,29.83,WSW,252,3.0,3.0,66,0.00,,,0.00,Wunderground v.1.15,2013-06-20 17:12:00,
2013-06-20 10:22:00,72.9,60.4,29.84,WSW,254,3.0,3.0,65,0.00,,,0.00,Wunderground v.1.15,2013-06-20 17:22:00,
2013-06-20 10:32:00,72.5,59.6,29.84,WSW,237,4.0,4.0,64,0.00,,,0.00,Wunderground v.1.15,2013-06-20 17:32:00,
2013-06-20 10:42:00,73.4,59.6,29.83,SSW,195,3.0,3.0,62,0.00,,,0.00,Wunderground v.1.15,2013-06-20 17:42:00,
2013-06-20 10:47:00,73.8,59.0,29.83,SSW,194,3.0,4.0,60,0.00,,,0.00,Wunderground v.1.15,2013-06-20 17:47:00,
2013-06-20 10:57:00,74.0,60.2,29.84,South,170,3.0,7.0,62,0.00,,,0.00,Wunderground v.1.15,2013-06-20 17:57:00,
2013-06-20 11:02:00,74.5,60.2,29.83,SSE,165,4.0,4.0,61,0.00,,,0.00,Wunderground v.1.15,2013-06-20 18:02:00,
2013-06-20 11:07:00,75.1,60.7,29.83,SW,229,3.0,6.0,61,0.00,,,0.00,Wunderground v.1.15,2013-06-20 18:07:00,
2013-06-20 11:12:00,75.0,60.6,29.83,South,181,4.0,4.0,61,0.00,,,0.00,Wunderground v.1.15,2013-06-20 18:12:00,
2013-06-20 11:22:00,74.8,60.4,29.83,SSE,168,4.0,4.0,61,0.00,,,0.00,Wunderground v.1.15,2013-06-20 18:22:00,
2013-06-20 11:27:00,75.2,60.4,29.83,WSW,244,3.0,4.0,60,0.00,,,0.00,Wunderground v.1.15,2013-06-20 18:27:00,
2013-06-20 11:37:00,76.0,60.2,29.83,South,182,3.0,5.0,58,0.00,,,0.00,Wunderground v.1.15,2013-06-20 18:37:00,
2013-06-20 11:42:00,76.1,59.8,29.83,South,169,4.0,4.0,57,0.00,,,0.00,Wunderground v.1.15,2013-06-20 18:42:00,
2013-06-20 11:52:00,76.2,59.9,29.83,South,178,4.0,4.0,57,0.00,,,0.00,Wunderground v.1.15,2013-06-20 18:52:00,
2013-06-20 12:02:00,76.5,59.6,29.82,South,179,3.0,4.0,56,0.00,,,0.00,Wunderground v.1.15,2013-06-20 19:02:00,
2013-06-20 12:07:00,76.6,60.2,29.82,WSW,242,3.0,4.0,57,0.00,,,0.00,Wunderground v.1.15,2013-06-20 19:07:00,
2013-06-20 12:12:00,77.2,60.3,29.82,East,88,2.0,5.0,56,0.00,,,0.00,Wunderground v.1.15,2013-06-20 19:12:00,
2013-06-20 12:22:00,78.1,60.6,29.81,SW,225,2.0,5.0,55,0.00,,,0.00,Wunderground v.1.15,2013-06-20 19:22:00,
2013-06-20 12:32:00,77.8,60.3,29.81,NW,306,3.0,3.0,55,0.00,,,0.00,Wunderground v.1.15,2013-06-20 19:32:00,
2013-06-20 12:42:00,78.8,60.7,29.81,SSE,157,2.0,3.0,54,0.00,,,0.00,Wunderground v.1.15,2013-06-20 19:42:00,
2013-06-20 12:47:00,79.1,61.0,29.81,South,173,3.0,3.0,54,0.00,,,0.00,Wunderground v.1.15,2013-06-20 19:47:00,
2013-06-20 12:57:00,78.7,60.7,29.81,WSW,244,4.0,5.0,54,0.00,,,0.00,Wunderground v.1.15,2013-06-20 19:57:00,
2013-06-20 13:02:00,78.8,60.7,29.81,WSW,237,4.0,8.0,54,0.00,,,0.00,Wunderground v.1.15,2013-06-20 20:02:00,
2013-06-20 13:12:00,78.4,60.9,29.80,SW,217,4.0,4.0,55,0.00,,,0.00,Wunderground v.1.15,2013-06-20 20:12:00,
2013-06-20 13:22:00,79.4,60.8,29.80,South,170,5.0,5.0,53,0.00,,,0.00,Wunderground v.1.15,2013-06-20 20:22:00,
2013-06-20 13:32:00,79.4,60.2,29.80,SSE,161,4.0,4.0,52,0.00,,,0.00,Wunderground v.1.15,2013-06-20 20:32:00,
2013-06-20 13:37:00,79.4,61.3,29.80,WSW,244,4.0,5.0,54,0.00,,,0.00,Wunderground v.1.15,2013-06-20 20:37:00,
2013-06-20 13:47:00,79.6,61.0,29.80,ESE,121,6.0,6.0,53,0.00,,,0.00,Wunderground v.1.15,2013-06-20 20:47:00,
2013-06-20 13:52:00,79.6,61.0,29.80,SW,229,5.0,5.0,53,0.00,,,0.00,Wunderground v.1.15,2013-06-20 20:52:00,
2013-06-20 14:02:00,80.2,61.0,29.80,SE,144,4.0,4.0,52,0.00,,,0.00,Wunderground v.1.15,2013-06-20 21:02:00,
2013-06-20 14:07:00,80.8,61.5,29.80,WSW,242,4.0,11.0,52,0.00,,,0.00,Wunderground v.1.15,2013-06-20 21:07:00,
2013-06-20 14:12:00,80.6,61.3,29.80,SW,215,5.0,5.0,52,0.00,,,0.00,Wunderground v.1.15,2013-06-20 21:12:00,
2013-06-20 14:17:00,80.2,61.5,29.80,SSW,207,5.0,5.0,53,0.00,,,0.00,Wunderground v.1.15,2013-06-20 21:17:00,
2013-06-20 14:22:00,80.6,61.3,29.79,SSE,159,5.0,5.0,52,0.00,,,0.00,Wunderground v.1.15,2013-06-20 21:22:00,
2013-06-20 14:27:00,81.1,61.8,29.79,SSE,167,4.0,6.0,52,0.00,,,0.00,Wunderground v.1.15,2013-06-20 21:27:00,
2013-06-20 14:37:00,80.7,62.0,29.79,WSW,238,6.0,9.0,53,0.00,,,0.00,Wunderground v.1.15,2013-06-20 21:37:00,
2013-06-20 14:47:00,81.2,61.9,29.79,SW,234,5.0,6.0,52,0.00,,,0.00,Wunderground v.1.15,2013-06-20 21:47:00,
2013-06-20 14:57:00,80.5,61.8,29.79,SW,221,6.0,9.0,53,0.00,,,0.00,Wunderground v.1.15,2013-06-20 21:57:00,
2013-06-20 15:02:00,80.3,61.6,29.79,WNW,282,6.0,8.0,53,0.00,,,0.00,Wunderground v.1.15,2013-06-20 22:02:00,
2013-06-20 15:12:00,80.8,61.5,29.79,SW,226,5.0,5.0,52,0.00,,,0.00,Wunderground v.1.15,2013-06-20 22:12:00,
2013-06-20 15:22:00,80.7,61.4,29.79,WSW,246,5.0,5.0,52,0.00,,,0.00,Wunderground v.1.15,2013-06-20 22:22:00,
2013-06-20 15:27:00,81.0,61.7,29.79,SW,217,6.0,6.0,52,0.00,,,0.00,Wunderground v.1.15,2013-06-20 22:27:00,
2013-06-20 15:32:00,81.3,61.4,29.78,ESE,121,5.0,5.0,51,0.00,,,0.00,Wunderground v.1.15,2013-06-20 22:32:00,
2013-06-20 15:37:00,81.4,61.5,29.78,SW,232,4.0,5.0,51,0.00,,,0.00,Wunderground v.1.15,2013-06-20 22:37:00,
2013-06-20 15:42:00,81.3,60.9,29.78,SSW,209,4.0,4.0,50,0.00,,,0.00,Wunderground v.1.15,2013-06-20 22:42:00,
2013-06-20 15:52:00,81.2,61.4,29.78,WSW,241,6.0,6.0,51,0.00,,,0.00,Wunderground v.1.15,2013-06-20 22:52:00,
2013-06-20 15:57:00,81.2,61.9,29.78,SW,225,5.0,6.0,52,0.00,,,0.00,Wunderground v.1.15,2013-06-20 22:57:00,
2013-06-20 16:07:00,81.1,61.3,29.78,SW,215,5.0,5.0,51,0.00,,,0.00,Wunderground v.1.15,2013-06-20 23:07:00,
2013-06-20 16:17:00,80.7,60.9,29.78,South,183,6.0,8.0,51,0.00,,,0.00,Wunderground v.1.15,2013-06-20 23:17:00,
2013-06-20 16:27:00,80.9,60.5,29.78,SSW,213,6.0,7.0,50,0.00,,,0.00,Wunderground v.1.15,2013-06-20 23:27:00,
2013-06-20 16:32:00,81.3,60.9,29.78,SW,229,6.0,6.0,50,0.00,,,0.00,Wunderground v.1.15,2013-06-20 23:32:00,
2013-06-20 16:37:00,81.1,60.7,29.78,South,185,5.0,6.0,50,0.00,,,0.00,Wunderground v.1.15,2013-06-20 23:37:00,
2013-06-20 16:47:00,81.2,60.8,29.77,West,278,4.0,6.0,50,0.00,,,0.00,Wunderground v.1.15,2013-06-20 23:47:00,
2013-06-20 16:57:00,81.3,59.1,29.77,SSW,202,6.0,6.0,47,0.00,,,0.00,Wunderground v.1.15,2013-06-20 23:57:00,
2013-06-20 17:12:00,81.4,56.8,29.77,SW,217,5.0,5.0,43,0.00,,,0.00,Wunderground v.1.15,2013-06-21 00:12:00,
2013-06-20 17:22:00,81.4,55.4,29.77,WSW,252,5.0,9.0,41,0.00,,,0.00,Wunderground v.1.15,2013-06-21 00:22:00,
2013-06-20 17:27:00,81.5,51.2,29.77,West,272,5.0,9.0,35,0.00,,,0.00,Wunderground v.1.15,2013-06-21 00:27:00,
2013-06-20 17:37:00,81.6,52.8,29.77,WNW,286,4.0,7.0,37,0.00,,,0.00,Wunderground v.1.15,2013-06-21 00:37:00,
2013-06-20 17:42:00,81.9,52.3,29.77,SW,234,4.0,4.0,36,0.00,,,0.00,Wunderground v.1.15,2013-06-21 00:42:00,
2013-06-20 17:47:00,81.7,49.8,29.77,WSW,242,4.0,10.0,33,0.00,,,0.00,Wunderground v.1.15,2013-06-21 00:47:00,
2013-06-20 17:57:00,81.9,49.1,29.77,West,264,4.0,5.0,32,0.00,,,0.00,Wunderground v.1.15,2013-06-21 00:57:00,
2013-06-20 18:07:00,81.9,49.1,29.77,SW,223,3.0,5.0,32,0.00,,,0.00,Wunderground v.1.15,2013-06-21 01:07:00,
2013-06-20 18:12:00,81.2,49.4,29.77,WSW,242,4.0,6.0,33,0.00,,,0.00,Wunderground v.1.15,2013-06-21 01:12:00,
2013-06-20 18:17:00,80.9,49.1,29.77,SW,231,5.0,6.0,33,0.00,,,0.00,Wunderground v.1.15,2013-06-21 01:17:00,
2013-06-20 18:27:00,81.0,50.0,29.77,South,177,3.0,4.0,34,0.00,,,0.00,Wunderground v.1.15,2013-06-21 01:27:00,
2013-06-20 18:32:00,80.8,49.8,29.77,SW,234,3.0,3.0,34,0.00,,,0.00,Wunderground v.1.15,2013-06-21 01:32:00,
2013-06-20 18:42:00,80.9,49.9,29.77,SW,232,3.0,5.0,34,0.00,,,0.00,Wunderground v.1.15,2013-06-21 01:42:00,
2013-06-20 18:52:00,80.0,50.6,29.77,SW,232,4.0,4.0,36,0.00,,,0.00,Wunderground v.1.15,2013-06-21 01:52:00,
2013-06-20 18:57:00,80.2,50.1,29.77,SSW,202,3.0,4.0,35,0.00,,,0.00,Wunderground v.1.15,2013-06-21 01:57:00,
2013-06-20 19:02:00,80.3,55.1,29.77,SE,125,2.0,2.0,42,0.00,,,0.00,Wunderground v.1.15,2013-06-21 02:02:00,
2013-06-20 19:07:00,79.5,54.4,29.77,SE,141,3.0,3.0,42,0.00,,,0.00,Wunderground v.1.15,2013-06-21 02:07:00,
2013-06-20 19:17:00,78.8,54.4,29.77,SSW,194,3.0,3.0,43,0.00,,,0.00,Wunderground v.1.15,2013-06-21 02:17:00,
2013-06-20 19:22:00,78.7,51.0,29.77,SW,219,3.0,3.0,38,0.00,,,0.00,Wunderground v.1.15,2013-06-21 02:22:00,
2013-06-20 19:27:00,78.7,53.7,29.77,SW,232,3.0,3.0,42,0.00,,,0.00,Wunderground v.1.15,2013-06-21 02:27:00,
2013-06-20 19:37:00,77.8,53.5,29.77,SSE,161,3.0,3.0,43,0.00,,,0.00,Wunderground v.1.15,2013-06-21 02:37:00,
2013-06-20 19:42:00,77.1,54.1,29.78,SE,139,3.0,3.0,45,0.00,,,0.00,Wunderground v.1.15,2013-06-21 02:42:00,
2013-06-20 19:47:00,76.5,54.2,29.78,South,176,3.0,4.0,46,0.00,,,0.00,Wunderground v.1.15,2013-06-21 02:47:00,
2013-06-20 19:57:00,75.3,53.7,29.78,South,177,3.0,5.0,47,0.00,,,0.00,Wunderground v.1.15,2013-06-21 02:57:00,
2013-06-20 20:07:00,74.5,54.1,29.78,South,175,2.0,3.0,49,0.00,,,0.00,Wunderground v.1.15,2013-06-21 03:07:00,
2013-06-20 20:12:00,74.2,53.8,29.79,South,173,2.0,4.0,49,0.00,,,0.00,Wunderground v.1.15,2013-06-21 03:12:00,
2013-06-20 20:22:00,73.5,53.7,29.79,South,169,2.0,2.0,50,0.00,,,0.00,Wunderground v.1.15,2013-06-21 03:22:00,
2013-06-20 20:27:00,73.2,54.0,29.79,South,169,2.0,2.0,51,0.00,,,0.00,Wunderground v.1.15,2013-06-21 03:27:00,
2013-06-20 20:37:00,72.6,54.5,29.79,SE,142,3.0,4.0,53,0.00,,,0.00,Wunderground v.1.15,2013-06-21 03:37:00,
2013-06-20 20:42:00,72.3,54.7,29.79,South,174,2.0,2.0,54,0.00,,,0.00,Wunderground v.1.15,2013-06-21 03:42:00,
2013-06-20 20:47:00,72.1,55.0,29.79,ESE,116,2.0,3.0,55,0.00,,,0.00,Wunderground v.1.15,2013-06-21 03:47:00,
2013-06-20 20:52:00,71.7,54.7,29.80,SE,132,2.0,2.0,55,0.00,,,0.00,Wunderground v.1.15,2013-06-21 03:52:00,
2013-06-20 20:57:00,71.4,54.9,29.80,SE,137,1.0,2.0,56,0.00,,,0.00,Wunderground v.1.15,2013-06-21 03:57:00,
2013-06-20 21:02:00,71.1,54.6,29.80,SE,128,1.0,2.0,56,0.00,,,0.00,Wunderground v.1.15,2013-06-21 04:02:00,
2013-06-20 21:12:00,70.7,54.7,29.80,SE,128,1.0,1.0,57,0.00,,,0.00,Wunderground v.1.15,2013-06-21 04:12:00,
2013-06-20 21:17:00,70.5,54.5,29.80,SE,128,1.0,1.0,57,0.00,,,0.00,Wunderground v.1.15,2013-06-21 04:17:00,
2013-06-20 21:22:00,70.4,54.4,29.80,SE,128,1.0,1.0,57,0.00,,,0.00,Wunderground v.1.15,2013-06-21 04:22:00,
2013-06-20 21:27:00,70.3,55.3,29.81,SE,128,1.0,2.0,59,0.00,,,0.00,Wunderground v.1.15,2013-06-21 04:27:00,
2013-06-20 21:32:00,70.1,55.6,29.81,SE,128,1.0,1.0,60,0.00,,,0.00,Wunderground v.1.15,2013-06-21 04:32:00,
2013-06-20 21:37:00,70.0,55.5,29.81,SE,128,1.0,1.0,60,0.00,,,0.00,Wunderground v.1.15,2013-06-21 04:37:00,
2013-06-20 21:47:00,69.6,55.6,29.81,SE,128,0.0,1.0,61,0.00,,,0.00,Wunderground v.1.15,2013-06-21 04:47:00,
2013-06-20 21:57:00,69.2,55.6,29.82,SE,128,0.0,0.0,62,0.00,,,0.00,Wunderground v.1.15,2013-06-21 04:57:00,
2013-06-20 22:02:00,69.1,56.0,29.82,SE,128,0.0,0.0,63,0.00,,,0.00,Wunderground v.1.15,2013-06-21 05:02:00,
2013-06-20 22:07:00,69.0,56.3,29.82,SE,128,1.0,1.0,64,0.00,,,0.00,Wunderground v.1.15,2013-06-21 05:07:00,
2013-06-20 22:17:00,68.8,56.6,29.82,SE,128,1.0,1.0,65,0.00,,,0.00,Wunderground v.1.15,2013-06-21 05:17:00,
2013-06-20 22:22:00,68.6,56.8,29.82,SE,128,1.0,2.0,66,0.00,,,0.00,Wunderground v.1.15,2013-06-21 05:22:00,
2013-06-20 22:32:00,68.3,56.5,29.82,SE,128,1.0,2.0,66,0.00,,,0.00,Wunderground v.1.15,2013-06-21 05:32:00,
2013-06-20 22:37:00,68.2,56.4,29.82,SE,128,1.0,2.0,66,0.00,,,0.00,Wunderground v.1.15,2013-06-21 05:37:00,
2013-06-20 22:42:00,68.1,55.9,29.82,SE,128,1.0,1.0,65,0.00,,,0.00,Wunderground v.1.15,2013-06-21 05:42:00,
2013-06-20 22:52:00,67.9,56.5,29.82,SE,128,0.0,0.0,67,0.00,,,0.00,Wunderground v.1.15,2013-06-21 05:52:00,
2013-06-20 22:57:00,67.7,56.3,29.82,SE,128,0.0,0.0,67,0.00,,,0.00,Wunderground v.1.15,2013-06-21 05:57:00,
2013-06-20 23:02:00,67.6,56.7,29.82,SE,128,0.0,0.0,68,0.00,,,0.00,Wunderground v.1.15,2013-06-21 06:02:00,
2013-06-20 23:12:00,67.3,56.4,29.82,SE,128,0.0,0.0,68,0.00,,,0.00,Wunderground v.1.15,2013-06-21 06:12:00,
2013-06-20 23:22:00,67.0,56.5,29.82,SE,128,0.0,0.0,69,0.00,,,0.00,Wunderground v.1.15,2013-06-21 06:22:00,
2013-06-20 23:27:00,66.9,56.4,29.82,SE,128,0.0,1.0,69,0.00,,,0.00,Wunderground v.1.15,2013-06-21 06:27:00,
2013-06-20 23:37:00,66.7,56.6,29.82,SE,128,0.0,0.0,70,0.00,,,0.00,Wunderground v.1.15,2013-06-21 06:37:00,
2013-06-20 23:42:00,66.6,56.9,29.82,SE,128,0.0,0.0,71,0.00,,,0.00,Wunderground v.1.15,2013-06-21 06:42:00,
2013-06-20 23:52:00,66.4,56.7,29.82,SE,128,0.0,0.0,71,0.00,,,0.00,Wunderground v.1.15,2013-06-21 06:52:00,
2013-06-20 23:57:00,66.3,57.0,29.82,SE,128,0.0,0.0,72,0.00,,,0.00,Wunderground v.1.15,2013-06-21 06:57:00,